Time;durP1;ratioP1;P1;durP2;ratioP2;P2;SDS_P1;SDS_P2;PMS_P1;PMS_P2;Temp;Humidity;BMP_temperature;BMP_pressure;BME280_temperature;BME280_humidity;BME280_pressure;Samples;Min_cycle;Max_cycle;Signal;HPM_P1;HPM_P2
2023/11/30 00:07:00;;;;;;;0.00;0.00;;;;;;;-0.61;79.55;99851.47;15679574;28;20057;-47
2023/11/30 00:14:34;;;;;;;0.00;0.00;;;;;;;-0.52;79.08;99853.16;15679869;28;20581;-49
2023/11/30 00:22:08;;;;;;;0.00;0.00;;;;;;;-0.73;78.92;99873.03;15676836;28;20576;-47
2023/11/30 00:29:43;;;;;;;0.00;0.00;;;;;;;-1.15;79.56;99869.38;15674647;28;20037;-51
2023/11/30 00:37:17;;;;;;;0.73;0.73;;;;;;;-0.90;78.92;99875.59;15661204;28;20521;-51
2023/11/30 00:45:00;;;;;;;0.00;0.00;;;;;;;-1.09;78.11;99866.09;15643036;28;20055;-48
2023/11/30 00:52:33;;;;;;;0.00;0.00;;;;;;;-0.67;75.91;99869.75;15658737;28;20041;-49
2023/11/30 01:00:11;;;;;;;0.00;0.00;;;;;;;-0.11;74.55;99874.34;15651511;28;20103;-50
2023/11/30 01:07:45;;;;;;;0.05;0.05;;;;;;;-0.05;73.84;99886.06;15659019;28;20041;-50
2023/11/30 01:15:26;;;;;;;0.17;0.17;;;;;;;-0.54;74.76;99902.59;15643329;28;20049;-49
2023/11/30 01:23:00;;;;;;;0.00;0.00;;;;;;;-1.01;75.62;99906.66;15639688;28;20411;-48
2023/11/30 01:30:41;;;;;;;0.00;0.00;;;;;;;-0.98;76.28;99924.75;15667083;28;20488;-49
2023/11/30 01:38:14;;;;;;;0.00;0.00;;;;;;;-0.79;74.87;99922.75;15642395;28;20416;-49
2023/11/30 01:45:51;;;;;;;0.00;0.00;;;;;;;-1.13;74.68;99922.69;15641421;28;20451;-50
2023/11/30 01:53:24;;;;;;;0.20;0.20;;;;;;;-1.41;75.80;99921.19;15656241;28;20608;-48
2023/11/30 02:01:01;;;;;;;0.20;0.20;;;;;;;-1.23;75.01;99914.06;15656786;28;20044;-49
2023/11/30 02:08:35;;;;;;;0.00;0.00;;;;;;;-1.22;74.41;99907.81;15655431;28;20040;-48
2023/11/30 02:16:12;;;;;;;0.00;0.00;;;;;;;-1.28;73.73;99908.44;15655615;28;20083;-48
2023/11/30 02:23:47;;;;;;;0.00;0.00;;;;;;;-1.45;74.43;99914.56;15649976;28;20037;-50
2023/11/30 02:31:21;;;;;;;0.00;0.00;;;;;;;-1.49;74.59;99911.44;15655958;28;20500;-49
2023/11/30 02:38:56;;;;;;;0.00;0.00;;;;;;;-1.61;74.79;99913.47;15674027;28;20124;-47
2023/11/30 02:46:35;;;;;;;0.00;0.00;;;;;;;-1.82;75.95;99919.06;15639491;28;20419;-49
2023/11/30 02:54:11;;;;;;;0.98;0.75;;;;;;;-1.79;75.54;99920.56;15671970;28;20044;-47
2023/11/30 03:01:45;;;;;;;0.45;0.45;;;;;;;-1.62;75.47;99917.09;15647930;28;20040;-49
2023/11/30 03:09:20;;;;;;;0.00;0.00;;;;;;;-1.51;74.81;99909.94;15640917;28;20041;-49
2023/11/30 03:16:53;;;;;;;0.45;0.45;;;;;;;-1.47;74.00;99898.13;15646120;28;20083;-49
2023/11/30 03:24:31;;;;;;;0.00;0.00;;;;;;;-1.51;73.79;99902.84;15680516;28;20675;-48
2023/11/30 03:32:06;;;;;;;0.00;0.00;;;;;;;-2.00;74.49;99896.38;15664208;28;20053;-48
2023/11/30 03:39:41;;;;;;;0.10;0.10;;;;;;;-1.85;74.40;99897.50;15663729;28;20060;-49
2023/11/30 03:47:19;;;;;;;0.00;0.00;;;;;;;-2.07;75.02;99886.44;15664788;28;20451;-52
2023/11/30 03:54:55;;;;;;;0.35;0.35;;;;;;;-1.98;74.53;99884.72;15665396;28;20053;-52
2023/11/30 04:02:28;;;;;;;0.00;0.00;;;;;;;-2.01;74.73;99892.06;15633020;28;20059;-49
2023/11/30 04:10:11;;;;;;;0.00;0.00;;;;;;;-2.40;74.37;99894.97;15664415;28;20043;-47
2023/11/30 04:17:44;;;;;;;0.00;0.00;;;;;;;-2.38;75.52;99891.22;15671720;28;20068;-49
2023/11/30 04:25:33;;;;;;;0.00;0.00;;;;;;;-2.29;74.03;99880.78;15663751;28;20508;-50
2023/11/30 04:33:06;;;;;;;0.00;0.00;;;;;;;-2.56;73.62;99893.00;15682837;28;20045;-47
2023/11/30 04:40:44;;;;;;;0.00;0.00;;;;;;;-2.60;73.22;99907.38;15657325;28;20029;-51
2023/11/30 04:48:22;;;;;;;0.00;0.00;;;;;;;-2.82;73.88;99903.34;15664060;28;20804;-48
2023/11/30 04:56:03;;;;;;;0.05;0.05;;;;;;;-2.89;73.73;99894.38;15663023;28;20095;-48
2023/11/30 05:03:38;;;;;;;0.00;0.00;;;;;;;-3.14;74.29;99901.94;15662101;28;20041;-50
2023/11/30 05:11:14;;;;;;;0.00;0.00;;;;;;;-3.02;75.19;99901.78;15680377;28;20200;-52
2023/11/30 05:18:49;;;;;;;0.00;0.00;;;;;;;-3.26;73.24;99916.19;15642660;28;20053;-50
2023/11/30 05:26:27;;;;;;;0.00;0.00;;;;;;;-3.13;74.11;99914.06;15676437;28;20395;-52
2023/11/30 05:34:05;;;;;;;0.00;0.00;;;;;;;-2.94;74.42;99920.22;15659923;28;20048;-48
2023/11/30 05:41:43;;;;;;;0.00;0.00;;;;;;;-2.78;74.89;99932.78;15671553;28;20021;-50
2023/11/30 05:49:18;;;;;;;0.00;0.00;;;;;;;-2.70;75.28;99927.63;15662438;28;20087;-49
2023/11/30 05:56:53;;;;;;;0.00;0.00;;;;;;;-2.76;76.23;99933.44;15677545;28;20536;-52
2023/11/30 06:04:29;;;;;;;0.00;0.00;;;;;;;-3.00;77.39;99945.25;15674482;28;20041;-51
2023/11/30 06:12:09;;;;;;;0.00;0.00;;;;;;;-2.69;75.93;99948.50;15656110;28;20080;-49
2023/11/30 06:19:43;;;;;;;0.00;0.00;;;;;;;-2.60;75.01;99944.16;15666364;28;20143;-50
2023/11/30 06:27:18;;;;;;;0.10;0.10;;;;;;;-2.47;74.77;99947.28;15670565;28;20241;-49
2023/11/30 06:34:51;;;;;;;0.00;0.00;;;;;;;-2.69;73.26;99950.28;15673171;28;20579;-48
2023/11/30 06:42:26;;;;;;;0.03;0.03;;;;;;;-2.77;74.21;99947.56;15671933;28;20067;-51
2023/11/30 06:50:01;;;;;;;0.00;0.00;;;;;;;-3.03;73.38;99947.34;15643221;28;20041;-49
2023/11/30 06:57:38;;;;;;;0.00;0.00;;;;;;;-2.96;73.05;99956.31;15685587;28;20551;-50
2023/11/30 07:05:13;;;;;;;0.00;0.00;;;;;;;-3.25;72.10;99966.88;15685561;28;20052;-47
2023/11/30 07:12:47;;;;;;;0.00;0.00;;;;;;;-3.25;72.46;99962.47;15643379;28;20045;-47
2023/11/30 07:20:22;;;;;;;0.25;0.25;;;;;;;-3.18;73.50;99967.97;15684001;28;20487;-49
2023/11/30 07:27:57;;;;;;;0.80;0.73;;;;;;;-3.21;72.97;99965.63;15647408;28;20590;-47
2023/11/30 07:35:30;;;;;;;0.00;0.00;;;;;;;-3.08;73.64;99971.38;15682967;28;20041;-51
2023/11/30 07:43:06;;;;;;;0.00;0.00;;;;;;;-2.97;74.46;99984.38;15648808;28;20033;-48
2023/11/30 07:50:40;;;;;;;0.00;0.00;;;;;;;-2.57;73.74;99996.41;15681279;28;20473;-47
2023/11/30 07:58:16;;;;;;;0.00;0.00;;;;;;;-2.55;73.64;99998.91;15663638;28;20091;-49
2023/11/30 08:05:49;;;;;;;0.30;0.30;;;;;;;-2.19;73.34;99997.19;15662544;28;20053;-48
2023/11/30 08:13:25;;;;;;;0.05;0.05;;;;;;;-2.20;73.73;100003.44;15681137;28;20037;-52
2023/11/30 08:21:02;;;;;;;0.00;0.00;;;;;;;-1.75;73.51;100015.78;15681318;28;20569;-46
2023/11/30 08:28:37;;;;;;;0.00;0.00;;;;;;;-1.42;73.23;100004.59;15679574;28;20075;-51
2023/11/30 08:36:11;;;;;;;1.02;0.47;;;;;;;-1.89;73.70;100002.16;15663754;28;20094;-50
2023/11/30 08:43:47;;;;;;;0.90;0.90;;;;;;;-1.24;73.62;99991.41;15671436;28;20128;-49
2023/11/30 08:51:21;;;;;;;0.00;0.00;;;;;;;-0.82;72.39;99993.34;15679615;28;20070;-50
2023/11/30 08:58:55;;;;;;;0.88;0.60;;;;;;;-1.16;73.85;99993.28;15678696;28;20076;-50
2023/11/30 09:06:29;;;;;;;0.00;0.00;;;;;;;-0.61;72.12;99999.06;15644035;28;20586;-47
2023/11/30 09:14:07;;;;;;;0.08;0.08;;;;;;;-0.07;69.60;99994.38;15678017;28;20393;-51
2023/11/30 09:21:42;;;;;;;0.00;0.00;;;;;;;0.06;70.03;100001.03;15676140;28;20407;-49
2023/11/30 09:29:20;;;;;;;0.20;0.20;;;;;;;0.63;68.64;99995.84;15644391;28;20083;-49
2023/11/30 09:36:58;;;;;;;0.00;0.00;;;;;;;-0.77;72.84;99986.63;15677241;28;20049;-50
2023/11/30 09:44:34;;;;;;;0.00;0.00;;;;;;;1.61;65.61;99970.06;15676087;28;20087;-50
2023/11/30 09:52:10;;;;;;;0.20;0.20;;;;;;;1.11;67.15;99970.38;15641222;28;20033;-50
2023/11/30 09:59:45;;;;;;;0.00;0.00;;;;;;;1.15;68.19;99966.41;15632513;28;20048;-50
2023/11/30 10:07:20;;;;;;;1.45;1.35;;;;;;;0.71;67.78;99954.41;15674020;28;20045;-48
2023/11/30 10:15:09;;;;;;;0.00;0.00;;;;;;;2.00;65.16;99948.06;15655846;28;20629;-48
2023/11/30 10:22:44;;;;;;;0.10;0.08;;;;;;;3.54;60.86;99942.41;15653122;28;20071;-51
2023/11/30 10:30:22;;;;;;;0.25;0.25;;;;;;;4.29;59.13;99933.25;15671437;28;20463;-51
2023/11/30 10:37:58;;;;;;;2.90;2.28;;;;;;;5.06;57.10;99916.53;15675615;28;20502;-50
2023/11/30 10:45:38;;;;;;;0.43;0.43;;;;;;;5.48;54.75;99920.06;15673456;28;20056;-48
2023/11/30 10:53:22;;;;;;;0.00;0.00;;;;;;;4.94;57.86;99916.25;15640098;28;20488;-51
2023/11/30 11:01:00;;;;;;;3.08;1.05;;;;;;;5.22;56.01;99904.75;15639087;28;20456;-52
2023/11/30 11:08:33;;;;;;;0.65;0.65;;;;;;;4.58;57.91;99897.78;15673105;28;20057;-50
2023/11/30 11:16:09;;;;;;;0.10;0.10;;;;;;;5.89;50.54;99891.56;15672890;28;20063;-52
2023/11/30 11:23:43;;;;;;;1.35;0.98;;;;;;;6.89;49.00;99878.34;15652086;28;20091;-49
2023/11/30 11:31:17;;;;;;;;;;;;;;;8.22;46.45;99870.63;15638851;28;20140;-52
2023/11/30 11:38:50;;;;;;;0.00;0.00;;;;;;;8.15;46.05;99859.13;15679735;28;20440;-54
2023/11/30 11:46:25;;;;;;;0.30;0.30;;;;;;;6.47;48.13;99858.25;15684563;28;20045;-49
2023/11/30 11:53:59;;;;;;;0.32;0.20;;;;;;;8.41;45.30;99844.81;15679980;28;20058;-47
2023/11/30 12:01:39;;;;;;;0.00;0.00;;;;;;;8.88;44.92;99839.84;15661851;28;20051;-49
2023/11/30 12:09:13;;;;;;;0.08;0.08;;;;;;;7.11;46.89;99830.88;15680781;28;20041;-47
2023/11/30 12:16:49;;;;;;;0.00;0.00;;;;;;;5.07;51.81;99841.03;15654590;28;20049;-51
2023/11/30 12:24:23;;;;;;;0.22;0.22;;;;;;;3.93;55.20;99857.13;15677259;28;20079;-47
2023/11/30 12:31:57;;;;;;;0.65;0.65;;;;;;;3.18;58.27;99865.44;15678870;28;20052;-46
2023/11/30 12:39:30;;;;;;;0.00;0.00;;;;;;;1.82;63.98;99865.47;15679378;28;20045;-47
2023/11/30 12:47:06;;;;;;;0.10;0.10;;;;;;;1.66;64.45;99863.75;15679153;28;20044;-48
2023/11/30 12:54:39;;;;;;;0.10;0.10;;;;;;;1.91;63.23;99867.91;15678819;28;20128;-48
2023/11/30 13:02:14;;;;;;;0.00;0.00;;;;;;;2.42;62.85;99862.88;15644598;28;20056;-48
2023/11/30 13:09:47;;;;;;;1.95;0.68;;;;;;;1.91;65.21;99870.56;15669200;28;20088;-48
2023/11/30 13:17:23;;;;;;;0.03;0.03;;;;;;;1.81;63.75;99877.06;15675937;28;20053;-48
2023/11/30 13:24:56;;;;;;;0.10;0.10;;;;;;;1.36;64.70;99879.44;15674795;28;20543;-48
2023/11/30 13:32:33;;;;;;;;;;;;;;;0.86;67.48;99877.94;15643535;28;20037;-47
2023/11/30 13:40:07;;;;;;;0.03;0.03;;;;;;;1.57;65.67;99864.81;15676850;28;19920;-50
2023/11/30 13:47:47;;;;;;;0.52;0.50;;;;;;;1.17;67.09;99871.94;15676144;28;20052;-50
2023/11/30 13:55:23;;;;;;;1.02;1.02;;;;;;;1.76;65.21;99880.22;15676579;28;20545;-48
2023/11/30 14:03:01;;;;;;;0.55;0.55;;;;;;;1.69;65.25;99864.25;15676003;28;20041;-53
2023/11/30 14:10:34;;;;;;;0.00;0.00;;;;;;;0.98;66.51;99870.50;15673968;28;20044;-49
2023/11/30 14:18:09;;;;;;;0.10;0.10;;;;;;;0.70;67.45;99870.03;15673903;28;20066;-48
2023/11/30 14:25:42;;;;;;;0.20;0.20;;;;;;;1.34;65.99;99881.44;15653095;28;20073;-49
2023/11/30 14:33:17;;;;;;;0.47;0.47;;;;;;;0.87;66.95;99874.31;15672692;28;20102;-50
2023/11/30 14:40:50;;;;;;;0.30;0.30;;;;;;;1.21;65.94;99870.56;15672941;28;20053;-50
2023/11/30 14:48:25;;;;;;;0.20;0.20;;;;;;;0.29;67.86;99833.16;15640289;28;20040;-51
2023/11/30 14:55:58;;;;;;;0.10;0.10;;;;;;;0.29;69.07;99891.22;15672759;28;20041;-52
2023/11/30 15:03:33;;;;;;;0.22;0.22;;;;;;;0.38;68.76;99876.22;15673396;28;20049;-51
2023/11/30 15:11:08;;;;;;;0.00;0.00;;;;;;;0.66;68.10;99887.25;15678486;28;20097;-50
2023/11/30 15:18:42;;;;;;;0.30;0.30;;;;;;;0.65;67.29;99883.78;15684956;28;20044;-48
2023/11/30 15:26:16;;;;;;;0.00;0.00;;;;;;;0.65;67.30;99885.56;15681178;28;20091;-51
2023/11/30 15:33:51;;;;;;;0.00;0.00;;;;;;;0.50;67.61;99885.44;15684792;28;20051;-46
2023/11/30 15:41:26;;;;;;;0.90;0.75;;;;;;;0.47;67.77;99886.59;15684332;28;20128;-46
2023/11/30 15:49:01;;;;;;;0.75;0.65;;;;;;;0.45;68.36;99898.31;15666398;28;20049;-46
2023/11/30 15:56:35;;;;;;;0.40;0.40;;;;;;;0.29;68.24;99893.03;15683272;28;20536;-47
2023/11/30 16:04:10;;;;;;;0.22;0.22;;;;;;;-0.47;70.86;99886.13;15684011;28;20550;-47
2023/11/30 16:11:44;;;;;;;0.60;0.60;;;;;;;0.29;67.62;99899.13;15649760;28;20476;-44
2023/11/30 16:19:19;;;;;;;0.00;0.00;;;;;;;-0.14;69.60;99894.94;15683297;28;20397;-50
2023/11/30 16:26:54;;;;;;;0.10;0.10;;;;;;;-0.23;69.66;99895.91;15664978;28;20037;-50
2023/11/30 16:34:31;;;;;;;0.00;0.00;;;;;;;0.11;68.52;99901.91;15681681;28;20565;-49
2023/11/30 16:42:05;;;;;;;0.20;0.20;;;;;;;-0.02;69.69;99896.28;15681179;28;20095;-46
2023/11/30 16:49:40;;;;;;;0.10;0.10;;;;;;;0.25;68.42;99897.81;15662383;28;20049;-53
2023/11/30 16:57:13;;;;;;;0.28;0.28;;;;;;;-0.67;71.30;99896.94;15679051;28;20072;-47
2023/11/30 17:04:47;;;;;;;0.13;0.13;;;;;;;-0.71;72.44;99897.41;15678276;28;20037;-48
2023/11/30 17:12:21;;;;;;;0.00;0.00;;;;;;;0.34;69.93;99909.19;15678646;28;20053;-49
2023/11/30 17:19:56;;;;;;;1.80;0.50;;;;;;;0.30;68.97;99897.31;15678007;28;20194;-51
2023/11/30 17:27:31;;;;;;;0.30;0.30;;;;;;;0.28;68.77;99892.22;15674546;28;20049;-48
2023/11/30 17:35:07;;;;;;;0.00;0.00;;;;;;;0.03;69.54;99894.00;15659757;28;20070;-47
2023/11/30 17:42:41;;;;;;;0.17;0.17;;;;;;;-0.29;70.43;99892.09;15643577;28;20037;-49
2023/11/30 17:50:16;;;;;;;;;;;;;;;-0.18;71.07;99885.72;15676520;28;20048;-48
2023/11/30 17:57:50;;;;;;;0.73;0.73;;;;;;;-0.06;70.29;99889.69;15669020;28;19947;-48
2023/11/30 18:05:27;;;;;;;1.38;1.27;;;;;;;-0.50;71.86;99889.09;15677194;28;20212;-53
2023/11/30 18:13:01;;;;;;;0.40;0.40;;;;;;;-0.12;70.97;99883.25;15676743;28;20135;-53
2023/11/30 18:20:37;;;;;;;1.65;1.55;;;;;;;-0.13;69.52;99888.69;15674892;28;20071;-50
2023/11/30 18:28:11;;;;;;;0.10;0.10;;;;;;;-0.41;69.58;99893.41;15658082;28;20052;-49
2023/11/30 18:35:46;;;;;;;0.20;0.20;;;;;;;-0.42;70.03;99897.88;15661310;28;20048;-53
2023/11/30 18:43:20;;;;;;;0.10;0.10;;;;;;;-0.49;69.49;99893.38;15656870;28;20072;-53
2023/11/30 18:50:55;;;;;;;0.00;0.00;;;;;;;-0.64;70.44;99893.16;15686531;28;20206;-51
2023/11/30 18:58:28;;;;;;;1.90;1.73;;;;;;;-0.71;70.24;99903.50;15686862;28;20041;-53
2023/11/30 19:06:04;;;;;;;0.80;0.80;;;;;;;-0.76;70.19;99895.25;15687169;28;20037;-53
2023/11/30 19:13:37;;;;;;;0.50;0.50;;;;;;;-1.56;72.15;99892.78;15684842;28;20049;-53
2023/11/30 19:21:12;;;;;;;0.15;0.15;;;;;;;-1.23;70.88;99892.19;15664318;28;20059;-49
2023/11/30 19:28:46;;;;;;;0.65;0.65;;;;;;;-1.36;70.46;99895.22;15684428;28;20098;-54
2023/11/30 19:36:21;;;;;;;0.68;0.68;;;;;;;-1.82;71.74;99861.19;15684309;28;20072;-50
2023/11/30 19:43:54;;;;;;;0.77;0.77;;;;;;;-1.94;73.45;99888.69;15684696;28;20131;-49
2023/11/30 19:51:29;;;;;;;0.20;0.20;;;;;;;-2.05;75.33;99894.19;15669149;28;20154;-51
2023/11/30 19:59:02;;;;;;;0.25;0.25;;;;;;;-1.92;74.18;99901.69;15680277;28;20548;-54
2023/11/30 20:06:38;;;;;;;0.10;0.10;;;;;;;-2.83;77.21;99896.44;15661934;28;20053;-49
2023/11/30 20:14:11;;;;;;;0.57;0.57;;;;;;;-1.86;73.22;99909.00;15679759;28;20045;-52
2023/11/30 20:21:46;;;;;;;1.85;1.63;;;;;;;-1.73;72.80;99919.94;15675996;28;20064;-52
2023/11/30 20:29:19;;;;;;;0.05;0.05;;;;;;;-1.76;72.18;99904.47;15678367;28;20504;-49
2023/11/30 20:36:54;;;;;;;0.30;0.30;;;;;;;-1.93;71.37;99902.66;15638238;28;20061;-49
2023/11/30 20:44:29;;;;;;;0.00;0.00;;;;;;;-2.19;71.79;99899.94;15660977;28;20045;-48
2023/11/30 20:52:06;;;;;;;0.52;0.52;;;;;;;-2.19;71.38;99913.94;15678488;28;20088;-51
2023/11/30 20:59:39;;;;;;;0.35;0.35;;;;;;;-2.50;72.06;99923.94;15677399;28;20041;-55
2023/11/30 21:07:14;;;;;;;0.80;0.80;;;;;;;-2.73;70.74;99920.03;15677372;28;20045;-50
2023/11/30 21:14:48;;;;;;;0.00;0.00;;;;;;;-2.87;70.92;99905.56;15677628;28;20045;-48
2023/11/30 21:22:23;;;;;;;0.43;0.43;;;;;;;-2.97;71.87;99902.97;15652752;28;20399;-52
2023/11/30 21:29:57;;;;;;;0.15;0.15;;;;;;;-2.99;71.48;99915.41;15653667;28;20059;-48
2023/11/30 21:37:32;;;;;;;0.10;0.10;;;;;;;-2.87;71.93;99909.03;15682598;28;20064;-52
2023/11/30 21:45:06;;;;;;;1.60;1.50;;;;;;;-3.26;73.07;99916.19;15673726;28;20075;-47
2023/11/30 21:52:42;;;;;;;0.20;0.20;;;;;;;-3.30;72.57;99920.06;15673349;28;20053;-53
2023/11/30 22:00:17;;;;;;;0.45;0.45;;;;;;;-2.93;72.16;99940.28;15673754;28;20055;-50
2023/11/30 22:07:54;;;;;;;0.03;0.03;;;;;;;-2.81;71.90;99936.50;15644162;28;20523;-50
2023/11/30 22:15:27;;;;;;;0.10;0.10;;;;;;;-2.71;71.52;99926.78;15649113;28;20496;-48
2023/11/30 22:23:03;;;;;;;0.25;0.25;;;;;;;-2.48;71.65;99931.66;15633456;28;20040;-53
2023/11/30 22:30:36;;;;;;;0.10;0.10;;;;;;;-2.29;72.26;99931.53;15675492;28;20587;-50
2023/11/30 22:38:12;;;;;;;1.40;1.35;;;;;;;-2.15;72.45;99946.81;15646668;28;20055;-49
2023/11/30 22:45:45;;;;;;;0.10;0.10;;;;;;;-2.09;72.98;99937.53;15670958;28;20540;-50
2023/11/30 22:53:20;;;;;;;2.45;2.25;;;;;;;-1.83;72.19;99921.81;15671639;28;20060;-52
2023/11/30 23:00:53;;;;;;;0.77;0.55;;;;;;;-1.83;71.94;99916.56;15662013;28;20144;-50
2023/11/30 23:08:29;;;;;;;2.42;2.05;;;;;;;-1.96;72.61;99932.75;15666756;28;20053;-53
2023/11/30 23:16:03;;;;;;;0.10;0.10;;;;;;;-1.80;72.78;99939.94;15649710;28;20053;-49
2023/11/30 23:23:38;;;;;;;0.50;0.50;;;;;;;-1.64;72.84;99941.88;15666293;28;20037;-50
2023/11/30 23:31:11;;;;;;;0.90;0.88;;;;;;;-1.42;71.29;99940.59;15669439;28;21593;-50
2023/11/30 23:38:46;;;;;;;1.15;1.02;;;;;;;-1.79;72.54;99941.59;15675144;28;20076;-48
2023/11/30 23:46:20;;;;;;;0.10;0.10;;;;;;;-1.50;72.11;99946.59;15635013;22;20092;-52
2023/11/30 23:53:54;;;;;;;0.17;0.17;;;;;;;-1.45;71.61;99943.53;15603963;28;20503;-54
